sensor_id;sensor_type;location;lat;lon;timestamp;temperature;humidity
27114;DHT22;14648;49.730;8.614;2024-01-16T00:02:12;1.00;56.70
27114;DHT22;14648;49.730;8.614;2024-01-16T00:04:38;1.00;56.70
27114;DHT22;14648;49.730;8.614;2024-01-16T00:07:05;1.00;56.70
27114;DHT22;14648;49.730;8.614;2024-01-16T00:09:33;0.90;57.00
27114;DHT22;14648;49.730;8.614;2024-01-16T00:12:00;0.90;56.70
27114;DHT22;14648;49.730;8.614;2024-01-16T00:14:26;0.90;56.70
27114;DHT22;14648;49.730;8.614;2024-01-16T00:16:51;0.90;56.70
27114;DHT22;14648;49.730;8.614;2024-01-16T00:19:17;0.90;56.70
27114;DHT22;14648;49.730;8.614;2024-01-16T00:21:44;0.80;56.50
27114;DHT22;14648;49.730;8.614;2024-01-16T00:24:16;0.80;56.60
27114;DHT22;14648;49.730;8.614;2024-01-16T00:26:42;0.80;56.60
27114;DHT22;14648;49.730;8.614;2024-01-16T00:29:08;0.70;56.60
27114;DHT22;14648;49.730;8.614;2024-01-16T00:31:34;0.80;56.50
27114;DHT22;14648;49.730;8.614;2024-01-16T00:34:00;0.70;56.60
27114;DHT22;14648;49.730;8.614;2024-01-16T00:36:26;0.70;56.60
27114;DHT22;14648;49.730;8.614;2024-01-16T00:38:52;0.70;56.60
27114;DHT22;14648;49.730;8.614;2024-01-16T00:41:18;0.70;56.60
27114;DHT22;14648;49.730;8.614;2024-01-16T00:43:44;0.80;56.70
27114;DHT22;14648;49.730;8.614;2024-01-16T00:46:10;0.80;56.60
27114;DHT22;14648;49.730;8.614;2024-01-16T00:48:36;0.80;56.60
27114;DHT22;14648;49.730;8.614;2024-01-16T00:51:02;0.80;56.50
27114;DHT22;14648;49.730;8.614;2024-01-16T00:53:28;0.80;56.50
27114;DHT22;14648;49.730;8.614;2024-01-16T00:55:54;0.80;56.50
27114;DHT22;14648;49.730;8.614;2024-01-16T00:58:23;0.90;56.60
27114;DHT22;14648;49.730;8.614;2024-01-16T01:00:49;0.90;56.60
27114;DHT22;14648;49.730;8.614;2024-01-16T01:03:15;0.90;56.60
27114;DHT22;14648;49.730;8.614;2024-01-16T01:05:41;0.90;56.70
27114;DHT22;14648;49.730;8.614;2024-01-16T01:08:07;0.90;56.70
27114;DHT22;14648;49.730;8.614;2024-01-16T01:10:33;0.90;56.70
27114;DHT22;14648;49.730;8.614;2024-01-16T01:12:59;0.90;56.70
27114;DHT22;14648;49.730;8.614;2024-01-16T01:15:24;0.80;56.60
27114;DHT22;14648;49.730;8.614;2024-01-16T01:17:51;0.80;56.60
27114;DHT22;14648;49.730;8.614;2024-01-16T01:20:18;0.80;56.60
27114;DHT22;14648;49.730;8.614;2024-01-16T01:22:45;0.80;56.60
27114;DHT22;14648;49.730;8.614;2024-01-16T01:25:13;0.70;56.60
27114;DHT22;14648;49.730;8.614;2024-01-16T01:27:39;0.70;56.60
27114;DHT22;14648;49.730;8.614;2024-01-16T01:30:09;0.60;56.50
27114;DHT22;14648;49.730;8.614;2024-01-16T01:32:36;0.60;56.50
27114;DHT22;14648;49.730;8.614;2024-01-16T01:35:02;0.60;56.50
27114;DHT22;14648;49.730;8.614;2024-01-16T01:37:29;0.60;56.50
27114;DHT22;14648;49.730;8.614;2024-01-16T01:39:54;0.60;56.50
27114;DHT22;14648;49.730;8.614;2024-01-16T01:42:20;0.60;56.60
27114;DHT22;14648;49.730;8.614;2024-01-16T01:44:46;0.60;56.60
27114;DHT22;14648;49.730;8.614;2024-01-16T01:47:12;0.60;56.60
27114;DHT22;14648;49.730;8.614;2024-01-16T01:49:38;0.50;56.50
27114;DHT22;14648;49.730;8.614;2024-01-16T01:52:05;0.60;56.60
27114;DHT22;14648;49.730;8.614;2024-01-16T01:54:34;0.60;56.60
27114;DHT22;14648;49.730;8.614;2024-01-16T01:57:01;0.60;56.60
27114;DHT22;14648;49.730;8.614;2024-01-16T01:59:27;0.70;56.80
27114;DHT22;14648;49.730;8.614;2024-01-16T02:01:57;0.70;56.70
27114;DHT22;14648;49.730;8.614;2024-01-16T02:04:24;0.70;56.70
27114;DHT22;14648;49.730;8.614;2024-01-16T02:06:50;0.70;56.70
27114;DHT22;14648;49.730;8.614;2024-01-16T02:09:16;0.70;56.80
27114;DHT22;14648;49.730;8.614;2024-01-16T02:11:42;0.70;56.70
27114;DHT22;14648;49.730;8.614;2024-01-16T02:14:09;0.70;56.70
27114;DHT22;14648;49.730;8.614;2024-01-16T02:16:39;0.70;56.70
27114;DHT22;14648;49.730;8.614;2024-01-16T02:19:06;0.70;56.70
27114;DHT22;14648;49.730;8.614;2024-01-16T02:21:43;0.70;56.60
27114;DHT22;14648;49.730;8.614;2024-01-16T02:24:15;0.70;56.60
27114;DHT22;14648;49.730;8.614;2024-01-16T02:26:42;0.70;56.60
27114;DHT22;14648;49.730;8.614;2024-01-16T02:29:08;0.70;56.70
27114;DHT22;14648;49.730;8.614;2024-01-16T02:31:34;0.70;56.60
27114;DHT22;14648;49.730;8.614;2024-01-16T02:34:01;0.70;56.70
27114;DHT22;14648;49.730;8.614;2024-01-16T02:36:28;0.70;56.70
27114;DHT22;14648;49.730;8.614;2024-01-16T02:38:54;0.70;56.70
27114;DHT22;14648;49.730;8.614;2024-01-16T02:41:20;0.80;56.70
27114;DHT22;14648;49.730;8.614;2024-01-16T02:43:47;0.80;56.60
27114;DHT22;14648;49.730;8.614;2024-01-16T02:46:13;0.80;56.60
27114;DHT22;14648;49.730;8.614;2024-01-16T02:48:40;0.80;56.70
27114;DHT22;14648;49.730;8.614;2024-01-16T02:51:08;0.80;56.80
27114;DHT22;14648;49.730;8.614;2024-01-16T02:53:34;0.80;56.80
27114;DHT22;14648;49.730;8.614;2024-01-16T02:56:00;0.80;56.80
27114;DHT22;14648;49.730;8.614;2024-01-16T02:58:27;0.80;56.90
27114;DHT22;14648;49.730;8.614;2024-01-16T03:00:53;0.80;56.80
27114;DHT22;14648;49.730;8.614;2024-01-16T03:03:19;0.80;56.80
27114;DHT22;14648;49.730;8.614;2024-01-16T03:05:46;0.80;56.80
27114;DHT22;14648;49.730;8.614;2024-01-16T03:08:12;0.90;56.90
27114;DHT22;14648;49.730;8.614;2024-01-16T03:10:38;0.90;56.90
27114;DHT22;14648;49.730;8.614;2024-01-16T03:13:04;0.90;56.90
27114;DHT22;14648;49.730;8.614;2024-01-16T03:15:30;0.90;56.80
27114;DHT22;14648;49.730;8.614;2024-01-16T03:17:59;0.90;56.90
27114;DHT22;14648;49.730;8.614;2024-01-16T03:20:27;0.90;56.90
27114;DHT22;14648;49.730;8.614;2024-01-16T03:22:53;0.90;56.90
27114;DHT22;14648;49.730;8.614;2024-01-16T03:25:19;0.90;56.90
27114;DHT22;14648;49.730;8.614;2024-01-16T03:27:46;0.90;56.90
27114;DHT22;14648;49.730;8.614;2024-01-16T03:30:12;0.90;57.00
27114;DHT22;14648;49.730;8.614;2024-01-16T03:32:38;0.90;57.00
27114;DHT22;14648;49.730;8.614;2024-01-16T03:35:05;0.80;56.90
27114;DHT22;14648;49.730;8.614;2024-01-16T03:37:32;0.90;57.00
27114;DHT22;14648;49.730;8.614;2024-01-16T03:39:58;0.90;57.10
27114;DHT22;14648;49.730;8.614;2024-01-16T03:42:24;0.90;57.00
27114;DHT22;14648;49.730;8.614;2024-01-16T03:44:50;0.90;57.10
27114;DHT22;14648;49.730;8.614;2024-01-16T03:47:16;0.90;57.10
27114;DHT22;14648;49.730;8.614;2024-01-16T03:49:42;0.90;57.10
27114;DHT22;14648;49.730;8.614;2024-01-16T03:52:08;0.90;57.10
27114;DHT22;14648;49.730;8.614;2024-01-16T03:54:34;0.90;57.10
27114;DHT22;14648;49.730;8.614;2024-01-16T03:57:00;0.90;57.10
27114;DHT22;14648;49.730;8.614;2024-01-16T03:59:26;0.90;57.10
27114;DHT22;14648;49.730;8.614;2024-01-16T04:01:51;0.90;57.10
27114;DHT22;14648;49.730;8.614;2024-01-16T04:04:18;0.90;57.10
27114;DHT22;14648;49.730;8.614;2024-01-16T04:06:43;0.90;57.10
27114;DHT22;14648;49.730;8.614;2024-01-16T04:09:09;0.90;57.10
27114;DHT22;14648;49.730;8.614;2024-01-16T04:11:35;0.90;57.10
27114;DHT22;14648;49.730;8.614;2024-01-16T04:14:01;0.90;57.10
27114;DHT22;14648;49.730;8.614;2024-01-16T04:16:27;0.90;57.10
27114;DHT22;14648;49.730;8.614;2024-01-16T04:18:53;0.90;57.10
27114;DHT22;14648;49.730;8.614;2024-01-16T04:21:19;0.90;57.10
27114;DHT22;14648;49.730;8.614;2024-01-16T04:23:45;0.90;57.20
27114;DHT22;14648;49.730;8.614;2024-01-16T04:26:11;0.90;57.20
27114;DHT22;14648;49.730;8.614;2024-01-16T04:28:36;0.90;57.10
27114;DHT22;14648;49.730;8.614;2024-01-16T04:31:03;0.90;57.10
27114;DHT22;14648;49.730;8.614;2024-01-16T04:33:29;0.90;57.10
27114;DHT22;14648;49.730;8.614;2024-01-16T04:35:55;0.90;57.10
27114;DHT22;14648;49.730;8.614;2024-01-16T04:38:21;0.90;57.10
27114;DHT22;14648;49.730;8.614;2024-01-16T04:40:47;0.90;57.10
27114;DHT22;14648;49.730;8.614;2024-01-16T04:43:13;0.90;57.10
27114;DHT22;14648;49.730;8.614;2024-01-16T04:45:39;0.90;57.10
27114;DHT22;14648;49.730;8.614;2024-01-16T04:48:05;0.90;57.80
27114;DHT22;14648;49.730;8.614;2024-01-16T04:50:30;0.90;57.10
27114;DHT22;14648;49.730;8.614;2024-01-16T04:52:59;0.90;57.10
27114;DHT22;14648;49.730;8.614;2024-01-16T04:55:26;0.90;57.20
27114;DHT22;14648;49.730;8.614;2024-01-16T04:57:53;0.90;57.10
27114;DHT22;14648;49.730;8.614;2024-01-16T05:00:19;0.90;57.10
27114;DHT22;14648;49.730;8.614;2024-01-16T05:02:45;0.80;57.00
27114;DHT22;14648;49.730;8.614;2024-01-16T05:05:12;0.80;57.00
27114;DHT22;14648;49.730;8.614;2024-01-16T05:07:38;0.80;57.00
27114;DHT22;14648;49.730;8.614;2024-01-16T05:10:05;0.80;57.00
27114;DHT22;14648;49.730;8.614;2024-01-16T05:12:31;0.70;57.00
27114;DHT22;14648;49.730;8.614;2024-01-16T05:14:57;0.70;57.00
27114;DHT22;14648;49.730;8.614;2024-01-16T05:17:23;0.70;57.00
27114;DHT22;14648;49.730;8.614;2024-01-16T05:19:49;0.60;56.90
27114;DHT22;14648;49.730;8.614;2024-01-16T05:22:15;0.60;56.90
27114;DHT22;14648;49.730;8.614;2024-01-16T05:24:41;0.60;56.90
27114;DHT22;14648;49.730;8.614;2024-01-16T05:27:06;0.60;56.90
27114;DHT22;14648;49.730;8.614;2024-01-16T05:29:32;0.60;56.90
27114;DHT22;14648;49.730;8.614;2024-01-16T05:31:58;0.50;56.90
27114;DHT22;14648;49.730;8.614;2024-01-16T05:34:24;0.50;57.00
27114;DHT22;14648;49.730;8.614;2024-01-16T05:36:50;0.50;56.90
27114;DHT22;14648;49.730;8.614;2024-01-16T05:39:15;0.40;56.80
27114;DHT22;14648;49.730;8.614;2024-01-16T05:41:42;0.50;57.60
27114;DHT22;14648;49.730;8.614;2024-01-16T05:44:08;0.40;56.80
27114;DHT22;14648;49.730;8.614;2024-01-16T05:46:34;0.40;56.80
27114;DHT22;14648;49.730;8.614;2024-01-16T05:49:00;0.40;56.70
27114;DHT22;14648;49.730;8.614;2024-01-16T05:51:28;0.30;56.70
27114;DHT22;14648;49.730;8.614;2024-01-16T05:53:54;0.30;56.70
27114;DHT22;14648;49.730;8.614;2024-01-16T05:56:20;0.30;56.70
27114;DHT22;14648;49.730;8.614;2024-01-16T05:58:46;0.30;56.60
27114;DHT22;14648;49.730;8.614;2024-01-16T06:01:12;0.30;56.60
27114;DHT22;14648;49.730;8.614;2024-01-16T06:03:41;0.20;56.50
27114;DHT22;14648;49.730;8.614;2024-01-16T06:06:07;0.20;56.50
27114;DHT22;14648;49.730;8.614;2024-01-16T06:08:33;0.20;56.50
27114;DHT22;14648;49.730;8.614;2024-01-16T06:10:59;0.20;56.60
27114;DHT22;14648;49.730;8.614;2024-01-16T06:13:25;0.20;56.50
27114;DHT22;14648;49.730;8.614;2024-01-16T06:15:51;0.20;56.60
27114;DHT22;14648;49.730;8.614;2024-01-16T06:18:16;0.30;56.60
27114;DHT22;14648;49.730;8.614;2024-01-16T06:20:42;0.20;56.50
27114;DHT22;14648;49.730;8.614;2024-01-16T06:23:08;0.30;56.60
27114;DHT22;14648;49.730;8.614;2024-01-16T06:25:34;0.20;56.50
27114;DHT22;14648;49.730;8.614;2024-01-16T06:27:59;0.30;56.60
27114;DHT22;14648;49.730;8.614;2024-01-16T06:30:25;0.30;56.50
27114;DHT22;14648;49.730;8.614;2024-01-16T06:32:51;0.30;56.50
27114;DHT22;14648;49.730;8.614;2024-01-16T06:35:17;0.20;56.50
27114;DHT22;14648;49.730;8.614;2024-01-16T06:37:43;0.20;56.50
27114;DHT22;14648;49.730;8.614;2024-01-16T06:40:09;0.20;56.60
27114;DHT22;14648;49.730;8.614;2024-01-16T06:42:36;0.20;56.60
27114;DHT22;14648;49.730;8.614;2024-01-16T06:45:02;0.10;56.60
27114;DHT22;14648;49.730;8.614;2024-01-16T06:47:28;0.20;56.60
27114;DHT22;14648;49.730;8.614;2024-01-16T06:49:54;0.10;56.60
27114;DHT22;14648;49.730;8.614;2024-01-16T06:52:20;0.20;56.70
27114;DHT22;14648;49.730;8.614;2024-01-16T06:54:45;0.20;56.70
27114;DHT22;14648;49.730;8.614;2024-01-16T06:57:11;0.20;56.70
27114;DHT22;14648;49.730;8.614;2024-01-16T06:59:37;0.20;56.70
27114;DHT22;14648;49.730;8.614;2024-01-16T07:02:03;0.10;56.60
27114;DHT22;14648;49.730;8.614;2024-01-16T07:04:29;0.10;56.60
27114;DHT22;14648;49.730;8.614;2024-01-16T07:06:55;0.10;56.60
27114;DHT22;14648;49.730;8.614;2024-01-16T07:09:20;0.10;56.60
27114;DHT22;14648;49.730;8.614;2024-01-16T07:11:47;0.10;56.60
27114;DHT22;14648;49.730;8.614;2024-01-16T07:14:13;0.10;56.60
27114;DHT22;14648;49.730;8.614;2024-01-16T07:16:39;0.10;56.70
27114;DHT22;14648;49.730;8.614;2024-01-16T07:19:05;0.10;56.70
27114;DHT22;14648;49.730;8.614;2024-01-16T07:21:30;0.10;56.60
27114;DHT22;14648;49.730;8.614;2024-01-16T07:23:56;0.10;56.70
27114;DHT22;14648;49.730;8.614;2024-01-16T07:26:23;0.10;56.70
27114;DHT22;14648;49.730;8.614;2024-01-16T07:28:49;0.10;56.60
27114;DHT22;14648;49.730;8.614;2024-01-16T07:31:15;0.10;56.70
27114;DHT22;14648;49.730;8.614;2024-01-16T07:33:42;0.00;56.60
27114;DHT22;14648;49.730;8.614;2024-01-16T07:36:09;0.00;56.70
27114;DHT22;14648;49.730;8.614;2024-01-16T07:38:35;0.00;56.70
27114;DHT22;14648;49.730;8.614;2024-01-16T07:41:04;0.00;56.80
27114;DHT22;14648;49.730;8.614;2024-01-16T07:43:31;0.00;56.70
27114;DHT22;14648;49.730;8.614;2024-01-16T07:45:57;0.00;56.70
27114;DHT22;14648;49.730;8.614;2024-01-16T07:48:22;0.00;56.80
27114;DHT22;14648;49.730;8.614;2024-01-16T07:50:48;0.00;56.70
27114;DHT22;14648;49.730;8.614;2024-01-16T07:53:14;0.10;56.90
27114;DHT22;14648;49.730;8.614;2024-01-16T07:55:41;0.10;56.90
27114;DHT22;14648;49.730;8.614;2024-01-16T07:58:07;0.10;56.80
27114;DHT22;14648;49.730;8.614;2024-01-16T08:00:36;0.10;56.70
27114;DHT22;14648;49.730;8.614;2024-01-16T08:03:01;0.10;56.70
27114;DHT22;14648;49.730;8.614;2024-01-16T08:05:28;0.10;56.70
27114;DHT22;14648;49.730;8.614;2024-01-16T08:07:56;0.20;56.70
27114;DHT22;14648;49.730;8.614;2024-01-16T08:10:24;0.20;56.70
27114;DHT22;14648;49.730;8.614;2024-01-16T08:12:50;0.20;56.70
27114;DHT22;14648;49.730;8.614;2024-01-16T08:15:16;0.30;56.90
27114;DHT22;14648;49.730;8.614;2024-01-16T08:17:42;0.30;56.90
27114;DHT22;14648;49.730;8.614;2024-01-16T08:20:08;0.30;57.00
27114;DHT22;14648;49.730;8.614;2024-01-16T08:22:38;0.30;56.90
27114;DHT22;14648;49.730;8.614;2024-01-16T08:25:04;0.40;56.90
27114;DHT22;14648;49.730;8.614;2024-01-16T08:27:34;0.40;56.90
27114;DHT22;14648;49.730;8.614;2024-01-16T08:29:59;0.40;56.90
27114;DHT22;14648;49.730;8.614;2024-01-16T08:32:26;0.40;57.00
27114;DHT22;14648;49.730;8.614;2024-01-16T08:34:52;0.50;57.10
27114;DHT22;14648;49.730;8.614;2024-01-16T08:37:17;0.50;57.10
27114;DHT22;14648;49.730;8.614;2024-01-16T08:39:43;0.50;57.10
27114;DHT22;14648;49.730;8.614;2024-01-16T08:42:09;0.50;57.00
27114;DHT22;14648;49.730;8.614;2024-01-16T08:44:38;0.50;57.10
27114;DHT22;14648;49.730;8.614;2024-01-16T08:47:05;0.50;57.10
27114;DHT22;14648;49.730;8.614;2024-01-16T08:49:32;0.60;57.10
27114;DHT22;14648;49.730;8.614;2024-01-16T08:51:58;0.60;57.10
27114;DHT22;14648;49.730;8.614;2024-01-16T08:54:24;0.60;57.40
27114;DHT22;14648;49.730;8.614;2024-01-16T08:56:51;0.60;57.10
27114;DHT22;14648;49.730;8.614;2024-01-16T08:59:19;0.70;57.10
27114;DHT22;14648;49.730;8.614;2024-01-16T09:01:45;0.70;57.20
27114;DHT22;14648;49.730;8.614;2024-01-16T09:04:11;0.70;57.20
27114;DHT22;14648;49.730;8.614;2024-01-16T09:06:37;0.70;57.20
27114;DHT22;14648;49.730;8.614;2024-01-16T09:09:03;0.80;57.20
27114;DHT22;14648;49.730;8.614;2024-01-16T09:11:31;0.70;57.20
27114;DHT22;14648;49.730;8.614;2024-01-16T09:13:57;0.70;57.30
27114;DHT22;14648;49.730;8.614;2024-01-16T09:16:23;0.80;57.30
27114;DHT22;14648;49.730;8.614;2024-01-16T09:18:49;0.80;57.30
27114;DHT22;14648;49.730;8.614;2024-01-16T09:21:15;0.90;57.70
27114;DHT22;14648;49.730;8.614;2024-01-16T09:23:41;0.90;57.40
27114;DHT22;14648;49.730;8.614;2024-01-16T09:26:07;1.00;57.40
27114;DHT22;14648;49.730;8.614;2024-01-16T09:28:33;1.00;57.40
27114;DHT22;14648;49.730;8.614;2024-01-16T09:30:58;1.00;57.30
27114;DHT22;14648;49.730;8.614;2024-01-16T09:33:24;1.00;57.40
27114;DHT22;14648;49.730;8.614;2024-01-16T09:35:53;1.10;57.50
27114;DHT22;14648;49.730;8.614;2024-01-16T09:38:19;1.20;57.30
27114;DHT22;14648;49.730;8.614;2024-01-16T09:40:44;1.20;57.30
27114;DHT22;14648;49.730;8.614;2024-01-16T09:43:11;1.30;57.50
27114;DHT22;14648;49.730;8.614;2024-01-16T09:45:38;1.30;57.40
27114;DHT22;14648;49.730;8.614;2024-01-16T09:48:05;1.40;57.40
27114;DHT22;14648;49.730;8.614;2024-01-16T09:50:31;1.50;57.40
27114;DHT22;14648;49.730;8.614;2024-01-16T09:52:57;1.60;57.50
27114;DHT22;14648;49.730;8.614;2024-01-16T09:55:23;1.70;57.60
27114;DHT22;14648;49.730;8.614;2024-01-16T09:57:52;1.70;57.60
27114;DHT22;14648;49.730;8.614;2024-01-16T10:00:21;1.80;57.50
27114;DHT22;14648;49.730;8.614;2024-01-16T10:02:50;1.90;57.60
27114;DHT22;14648;49.730;8.614;2024-01-16T10:05:15;1.90;57.60
27114;DHT22;14648;49.730;8.614;2024-01-16T10:07:42;1.90;57.80
27114;DHT22;14648;49.730;8.614;2024-01-16T10:10:10;2.00;57.90
27114;DHT22;14648;49.730;8.614;2024-01-16T10:12:40;2.10;58.00
27114;DHT22;14648;49.730;8.614;2024-01-16T10:15:06;2.10;58.00
27114;DHT22;14648;49.730;8.614;2024-01-16T10:17:40;2.10;57.90
27114;DHT22;14648;49.730;8.614;2024-01-16T10:20:08;2.00;57.80
27114;DHT22;14648;49.730;8.614;2024-01-16T10:22:39;2.00;58.00
27114;DHT22;14648;49.730;8.614;2024-01-16T10:25:10;2.00;58.10
27114;DHT22;14648;49.730;8.614;2024-01-16T10:27:39;2.10;58.30
27114;DHT22;14648;49.730;8.614;2024-01-16T10:30:06;2.10;58.40
27114;DHT22;14648;49.730;8.614;2024-01-16T10:32:50;2.20;58.10
27114;DHT22;14648;49.730;8.614;2024-01-16T10:35:16;2.30;58.40
27114;DHT22;14648;49.730;8.614;2024-01-16T10:40:19;2.40;58.30
27114;DHT22;14648;49.730;8.614;2024-01-16T10:42:56;2.50;58.50
27114;DHT22;14648;49.730;8.614;2024-01-16T10:45:29;2.50;58.40
27114;DHT22;14648;49.730;8.614;2024-01-16T10:50:33;2.60;58.50
27114;DHT22;14648;49.730;8.614;2024-01-16T10:53:00;2.70;58.60
27114;DHT22;14648;49.730;8.614;2024-01-16T10:55:29;2.90;58.60
27114;DHT22;14648;49.730;8.614;2024-01-16T10:57:58;2.90;58.60
27114;DHT22;14648;49.730;8.614;2024-01-16T11:00:27;3.00;59.00
27114;DHT22;14648;49.730;8.614;2024-01-16T11:03:11;3.00;58.40
27114;DHT22;14648;49.730;8.614;2024-01-16T11:05:44;3.10;58.70
27114;DHT22;14648;49.730;8.614;2024-01-16T11:08:12;3.00;58.50
27114;DHT22;14648;49.730;8.614;2024-01-16T11:10:39;3.00;58.60
27114;DHT22;14648;49.730;8.614;2024-01-16T11:13:06;3.00;58.60
27114;DHT22;14648;49.730;8.614;2024-01-16T11:15:32;3.00;58.60
27114;DHT22;14648;49.730;8.614;2024-01-16T11:18:01;3.00;58.70
27114;DHT22;14648;49.730;8.614;2024-01-16T11:20:30;3.10;58.70
27114;DHT22;14648;49.730;8.614;2024-01-16T11:22:58;3.00;58.60
27114;DHT22;14648;49.730;8.614;2024-01-16T11:25:34;3.10;58.90
27114;DHT22;14648;49.730;8.614;2024-01-16T11:28:10;3.10;58.80
27114;DHT22;14648;49.730;8.614;2024-01-16T11:30:39;3.20;58.60
27114;DHT22;14648;49.730;8.614;2024-01-16T11:33:06;3.30;58.70
27114;DHT22;14648;49.730;8.614;2024-01-16T11:35:36;3.20;58.40
27114;DHT22;14648;49.730;8.614;2024-01-16T11:38:08;3.20;58.40
27114;DHT22;14648;49.730;8.614;2024-01-16T11:40:36;3.20;58.50
27114;DHT22;14648;49.730;8.614;2024-01-16T11:43:35;3.10;58.50
27114;DHT22;14648;49.730;8.614;2024-01-16T11:46:05;3.10;58.30
27114;DHT22;14648;49.730;8.614;2024-01-16T11:48:33;3.00;58.20
27114;DHT22;14648;49.730;8.614;2024-01-16T11:51:00;3.00;58.10
27114;DHT22;14648;49.730;8.614;2024-01-16T11:53:33;2.90;58.10
27114;DHT22;14648;49.730;8.614;2024-01-16T11:56:41;2.80;57.90
27114;DHT22;14648;49.730;8.614;2024-01-16T12:02:29;2.60;58.00
27114;DHT22;14648;49.730;8.614;2024-01-16T12:04:59;2.60;57.90
27114;DHT22;14648;49.730;8.614;2024-01-16T12:07:29;2.60;58.10
27114;DHT22;14648;49.730;8.614;2024-01-16T12:09:59;2.70;58.30
27114;DHT22;14648;49.730;8.614;2024-01-16T12:12:26;2.90;58.30
27114;DHT22;14648;49.730;8.614;2024-01-16T12:14:52;3.10;58.50
27114;DHT22;14648;49.730;8.614;2024-01-16T12:17:19;3.30;58.40
27114;DHT22;14648;49.730;8.614;2024-01-16T12:19:46;3.40;58.10
27114;DHT22;14648;49.730;8.614;2024-01-16T12:22:15;3.50;58.20
27114;DHT22;14648;49.730;8.614;2024-01-16T12:24:44;3.60;58.20
27114;DHT22;14648;49.730;8.614;2024-01-16T12:27:13;3.60;58.10
27114;DHT22;14648;49.730;8.614;2024-01-16T12:29:39;3.70;58.40
27114;DHT22;14648;49.730;8.614;2024-01-16T12:32:07;3.70;58.40
27114;DHT22;14648;49.730;8.614;2024-01-16T12:34:35;3.60;58.30
27114;DHT22;14648;49.730;8.614;2024-01-16T12:37:05;3.60;58.50
27114;DHT22;14648;49.730;8.614;2024-01-16T12:39:32;3.70;58.80
27114;DHT22;14648;49.730;8.614;2024-01-16T12:42:01;3.80;58.90
27114;DHT22;14648;49.730;8.614;2024-01-16T12:44:28;3.90;58.70
27114;DHT22;14648;49.730;8.614;2024-01-16T12:46:54;4.00;58.60
27114;DHT22;14648;49.730;8.614;2024-01-16T12:49:24;4.00;59.00
27114;DHT22;14648;49.730;8.614;2024-01-16T12:51:50;4.10;59.20
27114;DHT22;14648;49.730;8.614;2024-01-16T12:54:18;4.20;59.10
27114;DHT22;14648;49.730;8.614;2024-01-16T12:56:47;4.20;59.10
27114;DHT22;14648;49.730;8.614;2024-01-16T12:59:13;4.40;59.60
27114;DHT22;14648;49.730;8.614;2024-01-16T13:01:44;4.60;59.30
27114;DHT22;14648;49.730;8.614;2024-01-16T13:04:12;4.70;59.30
27114;DHT22;14648;49.730;8.614;2024-01-16T13:06:39;4.80;59.30
27114;DHT22;14648;49.730;8.614;2024-01-16T13:09:11;4.90;59.50
27114;DHT22;14648;49.730;8.614;2024-01-16T13:11:46;5.10;59.60
27114;DHT22;14648;49.730;8.614;2024-01-16T13:14:13;5.30;60.50
27114;DHT22;14648;49.730;8.614;2024-01-16T13:16:39;5.50;59.80
27114;DHT22;14648;49.730;8.614;2024-01-16T13:19:04;5.70;59.50
27114;DHT22;14648;49.730;8.614;2024-01-16T13:21:34;5.70;59.50
27114;DHT22;14648;49.730;8.614;2024-01-16T13:24:00;5.70;59.50
27114;DHT22;14648;49.730;8.614;2024-01-16T13:26:26;5.80;59.50
27114;DHT22;14648;49.730;8.614;2024-01-16T13:28:52;5.80;59.40
27114;DHT22;14648;49.730;8.614;2024-01-16T13:31:19;5.70;59.10
27114;DHT22;14648;49.730;8.614;2024-01-16T13:33:44;5.50;59.20
27114;DHT22;14648;49.730;8.614;2024-01-16T13:36:10;5.40;59.40
27114;DHT22;14648;49.730;8.614;2024-01-16T13:38:37;5.40;59.80
27114;DHT22;14648;49.730;8.614;2024-01-16T13:41:03;5.50;59.60
27114;DHT22;14648;49.730;8.614;2024-01-16T13:43:28;5.60;59.10
27114;DHT22;14648;49.730;8.614;2024-01-16T13:45:54;5.70;59.10
27114;DHT22;14648;49.730;8.614;2024-01-16T13:48:20;5.60;58.80
27114;DHT22;14648;49.730;8.614;2024-01-16T13:50:47;5.70;59.00
27114;DHT22;14648;49.730;8.614;2024-01-16T13:53:13;5.70;58.70
27114;DHT22;14648;49.730;8.614;2024-01-16T13:55:40;5.70;58.60
27114;DHT22;14648;49.730;8.614;2024-01-16T13:58:07;5.70;58.60
27114;DHT22;14648;49.730;8.614;2024-01-16T14:00:33;5.70;58.60
27114;DHT22;14648;49.730;8.614;2024-01-16T14:02:59;5.70;58.60
27114;DHT22;14648;49.730;8.614;2024-01-16T14:05:25;5.80;58.70
27114;DHT22;14648;49.730;8.614;2024-01-16T14:07:52;5.80;58.60
27114;DHT22;14648;49.730;8.614;2024-01-16T14:10:22;5.80;58.30
27114;DHT22;14648;49.730;8.614;2024-01-16T14:12:50;5.80;58.10
27114;DHT22;14648;49.730;8.614;2024-01-16T14:15:18;5.70;57.70
27114;DHT22;14648;49.730;8.614;2024-01-16T14:17:55;5.60;58.00
27114;DHT22;14648;49.730;8.614;2024-01-16T14:20:23;5.70;58.00
27114;DHT22;14648;49.730;8.614;2024-01-16T14:22:51;5.70;57.90
27114;DHT22;14648;49.730;8.614;2024-01-16T14:25:18;5.70;57.60
27114;DHT22;14648;49.730;8.614;2024-01-16T14:28:01;5.60;58.00
27114;DHT22;14648;49.730;8.614;2024-01-16T14:30:35;5.60;57.30
27114;DHT22;14648;49.730;8.614;2024-01-16T14:33:01;5.40;56.60
27114;DHT22;14648;49.730;8.614;2024-01-16T14:35:27;5.20;56.70
27114;DHT22;14648;49.730;8.614;2024-01-16T14:37:54;5.00;56.50
27114;DHT22;14648;49.730;8.614;2024-01-16T14:40:20;4.80;56.40
27114;DHT22;14648;49.730;8.614;2024-01-16T14:42:46;4.60;56.40
27114;DHT22;14648;49.730;8.614;2024-01-16T14:45:25;4.50;56.40
27114;DHT22;14648;49.730;8.614;2024-01-16T14:47:52;4.50;56.40
27114;DHT22;14648;49.730;8.614;2024-01-16T14:50:20;4.60;56.10
27114;DHT22;14648;49.730;8.614;2024-01-16T14:52:48;4.60;55.80
27114;DHT22;14648;49.730;8.614;2024-01-16T14:55:14;4.60;55.60
27114;DHT22;14648;49.730;8.614;2024-01-16T14:57:40;4.50;55.40
27114;DHT22;14648;49.730;8.614;2024-01-16T15:00:17;4.40;55.30
27114;DHT22;14648;49.730;8.614;2024-01-16T15:02:50;4.40;55.30
27114;DHT22;14648;49.730;8.614;2024-01-16T15:05:16;4.30;55.10
27114;DHT22;14648;49.730;8.614;2024-01-16T15:07:44;4.20;55.00
27114;DHT22;14648;49.730;8.614;2024-01-16T15:10:11;4.10;54.90
27114;DHT22;14648;49.730;8.614;2024-01-16T15:12:41;4.10;54.70
27114;DHT22;14648;49.730;8.614;2024-01-16T15:15:08;4.00;54.50
27114;DHT22;14648;49.730;8.614;2024-01-16T15:17:36;4.00;54.50
27114;DHT22;14648;49.730;8.614;2024-01-16T15:20:02;3.80;54.20
27114;DHT22;14648;49.730;8.614;2024-01-16T15:22:40;3.80;54.20
27114;DHT22;14648;49.730;8.614;2024-01-16T15:25:09;3.60;54.00
27114;DHT22;14648;49.730;8.614;2024-01-16T15:27:35;3.50;54.00
27114;DHT22;14648;49.730;8.614;2024-01-16T15:30:03;3.40;53.90
27114;DHT22;14648;49.730;8.614;2024-01-16T15:32:30;3.40;53.90
27114;DHT22;14648;49.730;8.614;2024-01-16T15:34:57;3.30;53.90
27114;DHT22;14648;49.730;8.614;2024-01-16T15:37:23;3.20;53.80
27114;DHT22;14648;49.730;8.614;2024-01-16T15:39:49;3.10;53.80
27114;DHT22;14648;49.730;8.614;2024-01-16T15:42:14;3.00;53.60
27114;DHT22;14648;49.730;8.614;2024-01-16T15:44:40;3.00;53.60
27114;DHT22;14648;49.730;8.614;2024-01-16T15:47:06;2.80;53.60
27114;DHT22;14648;49.730;8.614;2024-01-16T15:49:32;2.80;53.50
27114;DHT22;14648;49.730;8.614;2024-01-16T15:51:58;2.70;53.40
27114;DHT22;14648;49.730;8.614;2024-01-16T15:54:27;2.60;53.30